createdAt,value
2017-11-09T00:03:03.940Z,100285.86
2017-11-09T00:05:37.286Z,100286.78
2017-11-09T00:08:04.914Z,100279.38
2017-11-09T00:10:32.533Z,100286.61
2017-11-09T00:13:00.263Z,100285.86
2017-11-09T00:15:27.949Z,100293.85
2017-11-09T00:17:55.567Z,100291.72
2017-11-09T00:20:23.238Z,100297.55
2017-11-09T00:22:50.862Z,100294.73
2017-11-09T00:25:18.545Z,100293.89
2017-11-09T00:27:46.214Z,100293.72
2017-11-09T00:30:13.901Z,100300.70
2017-11-09T00:32:41.582Z,100300.58
2017-11-09T00:35:09.258Z,100299.81
2017-11-09T00:37:36.952Z,100297.53
2017-11-09T00:40:04.680Z,100295.14
2017-11-09T00:42:32.352Z,100297.33
2017-11-09T00:44:59.984Z,100291.18
2017-11-09T00:47:27.607Z,100288.57
2017-11-09T00:49:55.277Z,100291.34
2017-11-09T00:52:22.969Z,100290.97
2017-11-09T00:54:50.577Z,100291.17
2017-11-09T00:57:18.247Z,100291.69
2017-11-09T00:59:45.862Z,100294.22
2017-11-09T01:02:13.542Z,100295.55
2017-11-09T01:04:41.214Z,100298.13
2017-11-09T01:07:08.893Z,100297.87
2017-11-09T01:09:36.569Z,100303.09
2017-11-09T01:12:04.248Z,100300.98
2017-11-09T01:14:31.863Z,100298.78
2017-11-09T01:16:59.472Z,100292.38
2017-11-09T01:19:27.131Z,100294.23
2017-11-09T01:21:54.753Z,100295.67
2017-11-09T01:24:22.368Z,100294.16
2017-11-09T01:26:50.060Z,100300.14
2017-11-09T01:29:17.680Z,100302.13
2017-11-09T01:31:45.365Z,100296.94
2017-11-09T01:34:13.026Z,100297.02
2017-11-09T01:36:40.714Z,100298.95
2017-11-09T01:39:08.401Z,100304.89
2017-11-09T01:41:36.136Z,100305.48
2017-11-09T01:44:03.752Z,100304.42
2017-11-09T01:46:31.384Z,100310.23
2017-11-09T01:48:59.064Z,100310.75
2017-11-09T01:51:26.694Z,100299.80
2017-11-09T01:53:54.381Z,100306.45
2017-11-09T01:56:22.036Z,100304.22
2017-11-09T01:58:49.657Z,100308.59
2017-11-09T02:01:17.283Z,100306.45
2017-11-09T02:03:44.953Z,100303.21
2017-11-09T02:06:12.633Z,100302.88
2017-11-09T02:08:40.260Z,100304.57
2017-11-09T02:11:07.932Z,100306.47
2017-11-09T02:13:35.553Z,100306.98
2017-11-09T02:16:03.175Z,100318.05
2017-11-09T02:18:30.835Z,100312.36
2017-11-09T02:20:58.521Z,100315.48
2017-11-09T02:23:26.206Z,100316.95
2017-11-09T02:25:53.896Z,100321.72
2017-11-09T02:28:21.592Z,100318.01
2017-11-09T02:30:49.285Z,100325.63
2017-11-09T02:33:16.992Z,100320.57
2017-11-09T02:35:44.625Z,100318.59
2017-11-09T02:38:12.277Z,100324.16
2017-11-09T02:40:39.947Z,100317.92
2017-11-09T02:43:07.570Z,100323.59
2017-11-09T02:45:35.212Z,100324.78
2017-11-09T02:48:02.909Z,100321.67
2017-11-09T02:50:30.533Z,100329.30
2017-11-09T02:52:58.409Z,100325.92
2017-11-09T02:55:26.091Z,100325.34
2017-11-09T02:57:53.724Z,100327.27
2017-11-09T03:00:21.418Z,100333.30
2017-11-09T03:02:49.100Z,100326.22
2017-11-09T03:05:16.723Z,100327.73
2017-11-09T03:07:44.412Z,100323.03
2017-11-09T03:10:12.093Z,100334.81
2017-11-09T03:12:39.712Z,100329.26
2017-11-09T03:15:07.333Z,100331.06
2017-11-09T03:17:35.017Z,100324.08
2017-11-09T03:20:02.655Z,100329.30
2017-11-09T03:22:30.277Z,100328.70
2017-11-09T03:24:57.960Z,100330.67
2017-11-09T03:27:25.646Z,100329.97
2017-11-09T03:29:53.320Z,100330.50
2017-11-09T03:32:20.986Z,100331.68
2017-11-09T03:34:48.605Z,100331.68
2017-11-09T03:37:16.226Z,100332.97
2017-11-09T03:39:43.944Z,100336.70
2017-11-09T03:42:11.553Z,100338.20
2017-11-09T03:44:39.168Z,100341.34
2017-11-09T03:47:06.937Z,100340.16
2017-11-09T03:49:34.552Z,100345.22
2017-11-09T03:52:02.194Z,100348.49
2017-11-09T03:54:29.930Z,100347.74
2017-11-09T03:56:57.547Z,100347.88
2017-11-09T03:59:25.163Z,100357.98
2017-11-09T04:01:52.833Z,100360.99
2017-11-09T04:04:20.448Z,100366.46
2017-11-09T04:06:48.071Z,100367.02
2017-11-09T04:09:15.743Z,100368.55
2017-11-09T04:11:43.420Z,100368.97
2017-11-09T04:14:11.029Z,100371.74
2017-11-09T04:16:38.753Z,100367.79
2017-11-09T04:19:06.364Z,100367.51
2017-11-09T04:21:34.040Z,100368.06
2017-11-09T04:24:01.712Z,100370.34
2017-11-09T04:26:30.320Z,100369.95
2017-11-09T04:28:57.948Z,100369.08
2017-11-09T04:31:25.617Z,100366.69
2017-11-09T04:33:53.245Z,100371.57
2017-11-09T04:36:20.861Z,100368.12
2017-11-09T04:38:48.574Z,100369.34
2017-11-09T04:41:16.187Z,100369.59
2017-11-09T04:43:43.811Z,100371.44
2017-11-09T04:46:11.472Z,100376.16
2017-11-09T04:48:39.092Z,100380.78
2017-11-09T04:51:06.716Z,100392.31
2017-11-09T04:53:34.400Z,100391.67
2017-11-09T04:56:02.028Z,100389.73
2017-11-09T04:58:29.704Z,100395.52
2017-11-09T05:00:57.372Z,100395.43
2017-11-09T05:03:25.044Z,100400.09
2017-11-09T05:05:52.679Z,100403.48
2017-11-09T05:08:20.408Z,100402.80
2017-11-09T05:10:48.027Z,100404.22
2017-11-09T05:13:15.693Z,100407.92
2017-11-09T05:15:43.369Z,100405.94
2017-11-09T05:18:11.048Z,100404.84
2017-11-09T05:20:38.732Z,100413.84
2017-11-09T05:23:06.459Z,100417.02
2017-11-09T05:25:34.150Z,100416.02
2017-11-09T05:28:01.787Z,100423.92
2017-11-09T05:30:29.541Z,100423.58
2017-11-09T05:32:57.220Z,100429.39
2017-11-09T05:35:24.848Z,100435.45
2017-11-09T05:37:52.512Z,100430.08
2017-11-09T05:40:20.142Z,100432.32
2017-11-09T05:42:47.838Z,100440.91
2017-11-09T05:45:15.576Z,100443.86
2017-11-09T05:47:43.198Z,100442.17
2017-11-09T05:50:10.901Z,100452.11
2017-11-09T05:52:38.725Z,100446.41
2017-11-09T05:55:06.352Z,100440.91
2017-11-09T05:57:34.041Z,100448.08
2017-11-09T06:00:01.720Z,100454.71
2017-11-09T06:02:29.386Z,100456.40
2017-11-09T06:04:57.021Z,100459.34
2017-11-09T06:07:24.688Z,100457.59
2017-11-09T06:09:52.381Z,100459.94
2017-11-09T06:12:20.061Z,100463.83
2017-11-09T06:14:47.805Z,100463.47
2017-11-09T06:17:15.433Z,100471.02
2017-11-09T06:19:43.046Z,100468.06
2017-11-09T06:22:10.769Z,100477.22
2017-11-09T06:24:38.388Z,100475.02
2017-11-09T06:27:06.013Z,100485.27
2017-11-09T06:29:33.852Z,100486.45
2017-11-09T06:32:01.476Z,100484.56
2017-11-09T06:34:29.101Z,100487.63
2017-11-09T06:36:56.773Z,100484.52
2017-11-09T06:39:24.459Z,100490.16
2017-11-09T06:41:52.079Z,100490.16
2017-11-09T06:44:19.757Z,100491.42
2017-11-09T06:46:47.377Z,100498.27
2017-11-09T06:49:14.987Z,100493.24
2017-11-09T06:51:42.660Z,100493.41
2017-11-09T06:54:10.292Z,100490.66
2017-11-09T06:56:37.995Z,100491.58
2017-11-09T06:59:05.682Z,100492.57
2017-11-09T07:01:33.303Z,100500.12
2017-11-09T07:04:00.930Z,100500.94
2017-11-09T07:06:28.601Z,100505.02
2017-11-09T07:08:56.245Z,100507.88
2017-11-09T07:11:23.864Z,100506.78
2017-11-09T07:13:51.536Z,100511.19
2017-11-09T07:16:19.224Z,100509.16
2017-11-09T07:18:46.913Z,100512.05
2017-11-09T07:21:14.601Z,100515.33
2017-11-09T07:23:42.228Z,100513.82
2017-11-09T07:26:09.866Z,100503.72
2017-11-09T07:28:37.709Z,100511.60
2017-11-09T07:31:05.353Z,100515.24
2017-11-09T07:33:33.040Z,100510.61
2017-11-09T07:36:00.729Z,100515.73
2017-11-09T07:38:28.350Z,100522.58
2017-11-09T07:40:56.021Z,100510.03
2017-11-09T07:43:23.704Z,100518.00
2017-11-09T07:45:51.335Z,100513.39
2017-11-09T07:48:18.956Z,100513.56
2017-11-09T07:50:46.646Z,100522.13
2017-11-09T07:53:14.268Z,100514.87
2017-11-09T07:55:41.884Z,100517.93
2017-11-09T07:58:09.581Z,100519.92
2017-11-09T08:00:37.280Z,100514.53
2017-11-09T08:03:04.906Z,100522.52
2017-11-09T08:05:32.590Z,100526.95
2017-11-09T08:08:00.276Z,100527.09
2017-11-09T08:10:27.913Z,100534.98
2017-11-09T08:12:55.605Z,100532.54
2017-11-09T08:15:23.230Z,100533.77
2017-11-09T08:17:50.869Z,100534.06
2017-11-09T08:20:18.554Z,100539.50
2017-11-09T08:22:46.184Z,100538.87
2017-11-09T08:25:16.640Z,100539.03
2017-11-09T08:27:46.057Z,100534.05
2017-11-09T08:30:14.088Z,100539.85
2017-11-09T08:32:46.328Z,100538.25
2017-11-09T08:35:14.019Z,100532.47
2017-11-09T08:37:41.656Z,100529.58
2017-11-09T08:40:09.289Z,100531.34
2017-11-09T08:42:36.968Z,100533.31
2017-11-09T08:45:04.588Z,100533.13
2017-11-09T08:47:32.217Z,100535.36
2017-11-09T08:50:00.065Z,100533.23
2017-11-09T08:52:27.703Z,100534.23
2017-11-09T08:54:55.397Z,100528.76
2017-11-09T08:57:23.064Z,100530.20
2017-11-09T08:59:50.708Z,100535.53
2017-11-09T09:02:18.337Z,100531.72
2017-11-09T09:04:46.107Z,100534.76
2017-11-09T09:07:13.749Z,100538.48
2017-11-09T09:09:41.383Z,100536.09
2017-11-09T09:12:09.128Z,100540.67
2017-11-09T09:14:36.807Z,100528.84
2017-11-09T09:17:04.500Z,100528.84
2017-11-09T09:19:32.228Z,100529.17
2017-11-09T09:22:02.425Z,100527.06
2017-11-09T09:24:30.169Z,100522.50
2017-11-09T09:29:58.018Z,100519.82
2017-11-09T09:32:26.162Z,100516.14
2017-11-09T09:35:13.061Z,100510.88
2017-11-09T09:37:44.637Z,100516.66
2017-11-09T09:40:14.432Z,100513.53
2017-11-09T09:42:42.125Z,100506.44
2017-11-09T09:45:09.937Z,100512.70
2017-11-09T09:47:37.698Z,100506.78
2017-11-09T09:50:05.471Z,100510.80
2017-11-09T09:52:33.177Z,100500.61
2017-11-09T09:55:00.875Z,100497.06
2017-11-09T09:57:28.585Z,100497.05
2017-11-09T09:59:56.328Z,100497.43
2017-11-09T10:02:24.026Z,100497.98
2017-11-09T10:04:51.673Z,100495.53
2017-11-09T10:07:19.418Z,100496.04
2017-11-09T10:09:47.177Z,100486.02
2017-11-09T10:12:14.935Z,100487.09
2017-11-09T10:14:42.617Z,100480.97
2017-11-09T10:17:10.300Z,100480.41
2017-11-09T10:19:37.993Z,100486.25
2017-11-09T10:22:05.681Z,100474.73
2017-11-09T10:24:33.304Z,100474.70
2017-11-09T10:27:00.936Z,100477.72
2017-11-09T10:29:28.678Z,100471.03
2017-11-09T10:31:56.314Z,100473.97
2017-11-09T10:34:24.016Z,100473.40
2017-11-09T10:36:51.701Z,100470.16
2017-11-09T10:39:19.320Z,100469.01
2017-11-09T10:41:47.053Z,100470.98
2017-11-09T10:44:14.725Z,100472.08
2017-11-09T10:46:42.357Z,100471.20
2017-11-09T10:49:09.989Z,100476.27
2017-11-09T10:51:37.677Z,100479.89
2017-11-09T10:54:05.315Z,100474.27
2017-11-09T10:56:32.956Z,100479.14
2017-11-09T10:59:00.702Z,100474.84
2017-11-09T11:01:28.337Z,100476.23
2017-11-09T11:03:56.038Z,100475.50
2017-11-09T11:06:23.788Z,100471.67
2017-11-09T11:08:51.421Z,100470.95
2017-11-09T11:11:19.129Z,100475.44
2017-11-09T11:13:46.803Z,100474.09
2017-11-09T11:16:14.445Z,100468.52
2017-11-09T11:18:42.086Z,100467.34
2017-11-09T11:21:09.766Z,100465.17
2017-11-09T11:23:37.405Z,100466.88
2017-11-09T11:26:05.025Z,100461.69
2017-11-09T11:28:32.693Z,100467.84
2017-11-09T11:31:00.321Z,100463.83
2017-11-09T11:33:27.940Z,100457.37
2017-11-09T11:35:55.615Z,100463.95
2017-11-09T11:38:23.240Z,100456.64
2017-11-09T11:40:50.864Z,100461.46
2017-11-09T11:43:18.536Z,100453.75
2017-11-09T11:45:46.173Z,100465.45
2017-11-09T11:48:13.800Z,100467.74
2017-11-09T11:50:41.486Z,100463.28
2017-11-09T11:53:09.106Z,100460.32
2017-11-09T11:55:36.750Z,100462.70
2017-11-09T11:58:04.420Z,100470.77
2017-11-09T12:00:32.064Z,100463.59
2017-11-09T12:02:59.765Z,100462.88
2017-11-09T12:05:27.500Z,100465.19
2017-11-09T12:07:55.124Z,100461.73
2017-11-09T12:10:23.701Z,100464.77
2017-11-09T12:12:51.372Z,100457.92
2017-11-09T12:15:19.051Z,100457.61
2017-11-09T12:17:46.674Z,100457.08
2017-11-09T12:20:14.358Z,100455.31
2017-11-09T12:22:42.045Z,100455.88
2017-11-09T12:25:09.748Z,100454.21
2017-11-09T12:27:37.426Z,100447.27
2017-11-09T12:30:05.074Z,100445.39
2017-11-09T12:32:32.780Z,100446.88
2017-11-09T12:35:00.461Z,100450.61
2017-11-09T12:37:28.153Z,100448.39
2017-11-09T12:39:55.849Z,100449.92
2017-11-09T12:42:23.582Z,100450.92
2017-11-09T12:44:51.369Z,100452.19
2017-11-09T12:47:19.122Z,100454.21
2017-11-09T12:49:46.894Z,100452.77
2017-11-09T12:52:14.521Z,100456.50
2017-11-09T12:54:42.153Z,100453.07
2017-11-09T12:57:09.882Z,100452.80
2017-11-09T12:59:37.980Z,100453.73
2017-11-09T13:02:05.625Z,100452.05
2017-11-09T13:04:33.354Z,100455.50
2017-11-09T13:07:01.043Z,100450.48
2017-11-09T13:09:28.668Z,100455.70
2017-11-09T13:11:56.461Z,100453.44
2017-11-09T13:14:24.184Z,100462.18
2017-11-09T13:16:51.859Z,100455.90
2017-11-09T13:22:13.428Z,100457.78
2017-11-09T13:24:41.100Z,100460.30
2017-11-09T13:27:08.784Z,100454.90
2017-11-09T13:29:36.457Z,100459.76
2017-11-09T13:32:04.293Z,100460.30
2017-11-09T13:34:31.964Z,100462.34
2017-11-09T13:37:00.357Z,100457.37
2017-11-09T13:39:28.030Z,100456.52
2017-11-09T13:41:55.687Z,100463.61
2017-11-09T13:44:23.380Z,100470.44
2017-11-09T13:46:51.064Z,100467.45
2017-11-09T13:49:18.682Z,100472.05
2017-11-09T13:51:46.313Z,100472.91
2017-11-09T13:54:13.991Z,100478.48
2017-11-09T13:56:41.620Z,100480.15
2017-11-09T13:59:09.243Z,100478.19
2017-11-09T14:01:36.975Z,100476.63
2017-11-09T14:04:04.617Z,100482.03
2017-11-09T14:06:32.259Z,100485.07
2017-11-09T14:09:00.010Z,100485.58
2017-11-09T14:11:27.640Z,100492.14
2017-11-09T14:13:55.330Z,100489.89
2017-11-09T14:16:23.024Z,100497.08
2017-11-09T14:18:50.718Z,100501.64
2017-11-09T14:21:18.343Z,100499.42
2017-11-09T14:23:46.160Z,100502.51
2017-11-09T14:26:13.788Z,100508.67
2017-11-09T14:28:41.473Z,100507.48
2017-11-09T14:31:09.157Z,100514.42
2017-11-09T14:33:36.787Z,100512.64
2017-11-09T14:36:04.416Z,100508.08
2017-11-09T14:38:32.101Z,100507.91
2017-11-09T14:40:59.729Z,100507.14
2017-11-09T14:43:27.413Z,100507.38
2017-11-09T14:45:55.143Z,100503.45
2017-11-09T14:48:22.771Z,100513.89
2017-11-09T14:50:50.401Z,100505.64
2017-11-09T14:53:18.089Z,100506.66
2017-11-09T14:55:45.719Z,100506.55
2017-11-09T14:58:13.336Z,100511.95
2017-11-09T15:00:41.083Z,100514.84
2017-11-09T15:03:08.712Z,100513.34
2017-11-09T15:05:36.388Z,100518.92
2017-11-09T15:08:04.216Z,100524.30
2017-11-09T15:10:31.891Z,100518.59
2017-11-09T15:12:59.572Z,100524.81
2017-11-09T15:15:27.254Z,100514.55
2017-11-09T15:17:54.913Z,100515.81
2017-11-09T15:20:22.646Z,100522.61
2017-11-09T15:22:50.441Z,100526.41
2017-11-09T15:25:18.132Z,100529.97
2017-11-09T15:27:45.773Z,100538.10
2017-11-09T15:30:13.561Z,100535.75
2017-11-09T15:32:41.255Z,100541.56
2017-11-09T15:35:10.785Z,100541.69
2017-11-09T15:37:38.456Z,100536.25
2017-11-09T15:40:06.139Z,100540.94
2017-11-09T15:42:33.772Z,100543.21
2017-11-09T15:45:01.448Z,100547.73
2017-11-09T15:47:29.084Z,100549.23
2017-11-09T15:49:56.712Z,100552.02
2017-11-09T15:52:24.384Z,100558.77
2017-11-09T15:54:52.017Z,100563.38
2017-11-09T15:57:19.637Z,100559.02
2017-11-09T15:59:47.326Z,100556.20
2017-11-09T16:02:14.952Z,100561.47
2017-11-09T16:04:42.673Z,100566.45
2017-11-09T16:07:16.139Z,100566.95
2017-11-09T16:09:43.817Z,100564.34
2017-11-09T16:12:11.430Z,100569.83
2017-11-09T16:14:39.250Z,100565.56
2017-11-09T16:17:06.873Z,100571.59
2017-11-09T16:19:34.496Z,100577.88
2017-11-09T16:22:02.159Z,100580.91
2017-11-09T16:24:29.788Z,100575.21
2017-11-09T16:26:57.456Z,100580.02
2017-11-09T16:29:25.126Z,100577.70
2017-11-09T16:31:52.752Z,100581.42
2017-11-09T16:34:20.377Z,100584.75
2017-11-09T16:36:48.046Z,100583.82
2017-11-09T16:39:15.688Z,100586.05
2017-11-09T16:41:43.378Z,100588.20
2017-11-09T16:44:11.049Z,100592.75
2017-11-09T16:46:38.674Z,100585.84
2017-11-09T16:49:06.301Z,100592.41
2017-11-09T16:51:33.996Z,100594.02
2017-11-09T16:54:01.659Z,100592.67
2017-11-09T16:56:29.273Z,100587.10
2017-11-09T16:58:57.009Z,100591.70
2017-11-09T17:01:24.621Z,100589.63
2017-11-09T17:03:52.244Z,100596.05
2017-11-09T17:06:19.927Z,100602.08
2017-11-09T17:08:47.630Z,100601.91
2017-11-09T17:11:15.327Z,100597.99
2017-11-09T17:13:43.011Z,100600.36
2017-11-09T17:16:10.641Z,100597.23
2017-11-09T17:18:38.326Z,100592.97
2017-11-09T17:21:06.011Z,100593.90
2017-11-09T17:23:33.644Z,100593.34
2017-11-09T17:26:01.279Z,100599.55
2017-11-09T17:28:28.960Z,100591.45
2017-11-09T17:30:56.632Z,100593.98
2017-11-09T17:33:24.322Z,100592.25
2017-11-09T17:35:52.218Z,100588.84
2017-11-09T17:38:19.919Z,100589.13
2017-11-09T17:40:47.601Z,100588.75
2017-11-09T17:43:15.309Z,100586.22
2017-11-09T17:45:42.991Z,100590.02
2017-11-09T17:48:10.609Z,100587.15
2017-11-09T17:50:38.357Z,100585.59
2017-11-09T17:53:05.982Z,100580.91
2017-11-09T17:55:33.657Z,100581.08
2017-11-09T17:58:01.329Z,100584.53
2017-11-09T18:00:28.961Z,100581.34
2017-11-09T18:02:56.648Z,100581.84
2017-11-09T18:05:24.392Z,100583.95
2017-11-09T18:07:52.019Z,100584.20
2017-11-09T18:10:19.697Z,100587.07
2017-11-09T18:12:47.377Z,100586.81
2017-11-09T18:15:15.106Z,100581.75
2017-11-09T18:17:42.744Z,100591.91
2017-11-09T18:20:10.433Z,100586.17
2017-11-09T18:22:38.111Z,100586.26
2017-11-09T18:25:05.729Z,100582.63
2017-11-09T18:27:33.557Z,100589.72
2017-11-09T18:30:01.180Z,100583.53
2017-11-09T18:32:28.813Z,100582.63
2017-11-09T18:34:56.557Z,100583.39
2017-11-09T18:37:24.176Z,100581.37
2017-11-09T18:39:51.805Z,100583.73
2017-11-09T18:42:19.543Z,100584.02
2017-11-09T18:44:47.225Z,100578.28
2017-11-09T18:47:14.964Z,100581.18
2017-11-09T18:49:42.770Z,100579.16
2017-11-09T18:52:10.438Z,100577.58
2017-11-09T18:54:38.057Z,100579.04
2017-11-09T18:57:05.729Z,100575.33
2017-11-09T18:59:33.375Z,100571.88
2017-11-09T19:02:01.000Z,100578.44
2017-11-09T19:04:28.712Z,100579.98
2017-11-09T19:06:56.343Z,100580.34
2017-11-09T19:09:27.682Z,100576.81
2017-11-09T19:11:55.476Z,100576.30
2017-11-09T19:14:23.112Z,100578.66
2017-11-09T19:16:50.795Z,100579.83
2017-11-09T19:19:18.484Z,100578.42
2017-11-09T19:21:46.105Z,100584.64
2017-11-09T19:24:13.793Z,100582.27
2017-11-09T19:26:41.525Z,100587.83
2017-11-09T19:29:09.152Z,100585.49
2017-11-09T19:31:36.776Z,100583.55
2017-11-09T19:34:04.453Z,100587.43
2017-11-09T19:36:32.072Z,100576.95
2017-11-09T19:38:59.704Z,100579.37
2017-11-09T19:41:27.441Z,100586.98
2017-11-09T19:43:55.057Z,100581.17
2017-11-09T19:46:22.703Z,100584.78
2017-11-09T19:48:50.489Z,100579.23
2017-11-09T19:51:18.121Z,100580.89
2017-11-09T19:53:45.749Z,100578.62
2017-11-09T19:56:13.437Z,100581.23
2017-11-09T19:58:41.063Z,100575.69
2017-11-09T20:01:08.700Z,100575.92
2017-11-09T20:03:36.385Z,100577.62
2017-11-09T20:06:04.100Z,100573.47
2017-11-09T20:08:31.781Z,100571.12
2017-11-09T20:10:59.448Z,100566.47
2017-11-09T20:13:27.093Z,100569.57
2017-11-09T20:15:54.725Z,100562.64
2017-11-09T20:18:22.453Z,100566.17
2017-11-09T20:20:50.081Z,100567.31
2017-11-09T20:23:17.703Z,100558.69
2017-11-09T20:25:45.368Z,100563.12
2017-11-09T20:28:12.991Z,100562.51
2017-11-09T20:30:40.610Z,100560.90
2017-11-09T20:33:08.293Z,100559.68
2017-11-09T20:35:35.920Z,100561.95
2017-11-09T20:38:03.613Z,100555.00
2017-11-09T20:40:31.336Z,100551.97
2017-11-09T20:42:59.043Z,100551.94
2017-11-09T20:45:26.728Z,100551.35
2017-11-09T20:47:54.461Z,100554.54
2017-11-09T20:50:22.084Z,100557.81
2017-11-09T20:52:49.773Z,100558.53
2017-11-09T20:55:17.527Z,100558.87
2017-11-09T20:57:45.154Z,100559.68
2017-11-09T21:00:12.787Z,100557.34
2017-11-09T21:02:40.625Z,100560.72
2017-11-09T21:05:08.250Z,100561.98
2017-11-09T21:07:35.881Z,100562.25
2017-11-09T21:10:03.565Z,100567.02
2017-11-09T21:12:31.204Z,100563.94
2017-11-09T21:14:58.823Z,100560.01
2017-11-09T21:17:26.501Z,100556.55
2017-11-09T21:19:54.135Z,100563.84
2017-11-09T21:22:21.765Z,100567.13
2017-11-09T21:24:49.538Z,100571.27
2017-11-09T21:27:17.218Z,100568.33
2017-11-09T21:29:44.837Z,100567.52
2017-11-09T21:32:12.670Z,100572.97
2017-11-09T21:34:40.289Z,100571.12
2017-11-09T21:37:07.919Z,100574.08
2017-11-09T21:39:35.656Z,100575.61
2017-11-09T21:42:03.280Z,100574.59
2017-11-09T21:44:30.900Z,100571.51
2017-11-09T21:46:58.625Z,100570.92
2017-11-09T21:49:26.309Z,100570.24
2017-11-09T21:51:53.937Z,100566.18
2017-11-09T21:54:21.608Z,100564.27
2017-11-09T21:56:49.281Z,100562.13
2017-11-09T21:59:16.926Z,100558.76
2017-11-09T22:01:44.593Z,100564.38
2017-11-09T22:04:12.225Z,100566.14
2017-11-09T22:06:39.847Z,100567.81
2017-11-09T22:09:07.581Z,100564.28
2017-11-09T22:11:35.260Z,100564.25
2017-11-09T22:14:02.894Z,100562.96
2017-11-09T22:16:30.560Z,100562.06
2017-11-09T22:18:58.191Z,100562.99
2017-11-09T22:21:25.870Z,100559.37
2017-11-09T22:23:53.543Z,100559.80
2017-11-09T22:26:21.232Z,100564.62
2017-11-09T22:28:48.906Z,100565.98
2017-11-09T22:31:16.584Z,100560.61
2017-11-09T22:33:44.269Z,100565.23
2017-11-09T22:36:11.888Z,100564.95
2017-11-09T22:38:39.571Z,100563.37
2017-11-09T22:41:07.186Z,100566.84
2017-11-09T22:43:34.813Z,100562.64
2017-11-09T22:46:02.593Z,100564.66
2017-11-09T22:48:30.216Z,100572.91
2017-11-09T22:50:57.893Z,100568.31
2017-11-09T22:56:23.755Z,100568.39
2017-11-09T22:58:51.485Z,100572.43
2017-11-09T23:01:19.194Z,100566.91
2017-11-09T23:03:47.025Z,100565.27
2017-11-09T23:06:14.750Z,100569.16
2017-11-09T23:08:42.428Z,100569.36
2017-11-09T23:11:10.166Z,100556.83
2017-11-09T23:13:37.885Z,100563.16
2017-11-09T23:16:05.516Z,100559.70
2017-11-09T23:18:33.188Z,100558.73
2017-11-09T23:21:00.932Z,100559.72
2017-11-09T23:23:28.543Z,100557.60
2017-11-09T23:25:56.172Z,100555.11
2017-11-09T23:28:23.849Z,100556.97
2017-11-09T23:30:51.472Z,100552.94
2017-11-09T23:33:21.868Z,100555.81
2017-11-09T23:35:49.602Z,100563.30
2017-11-09T23:38:17.213Z,100557.98
2017-11-09T23:40:44.888Z,100557.84
2017-11-09T23:43:12.568Z,100552.80
2017-11-09T23:45:40.183Z,100558.27
2017-11-09T23:48:07.801Z,100554.66
2017-11-09T23:50:35.526Z,100557.08
2017-11-09T23:53:03.163Z,100561.97
2017-11-09T23:55:30.774Z,100561.96
2017-11-09T23:57:58.549Z,100563.86
